createdAt,value
2018-05-08T00:00:15.709Z,86.20
2018-05-08T00:02:45.585Z,86.10
2018-05-08T00:05:11.748Z,85.30
2018-05-08T00:07:37.818Z,87.00
2018-05-08T00:10:04.920Z,85.10
2018-05-08T00:12:32.262Z,86.20
2018-05-08T00:14:59.366Z,85.00
2018-05-08T00:17:27.442Z,86.40
2018-05-08T00:19:54.628Z,86.60
2018-05-08T00:22:21.424Z,84.80
2018-05-08T00:24:47.477Z,84.70
2018-05-08T00:27:13.951Z,87.10
2018-05-08T00:29:40.059Z,86.50
2018-05-08T00:32:07.100Z,86.50
2018-05-08T00:34:35.220Z,86.90
2018-05-08T00:37:02.288Z,85.70
2018-05-08T00:39:28.344Z,86.50
2018-05-08T00:41:56.121Z,89.10
2018-05-08T00:44:22.948Z,87.60
2018-05-08T00:46:49.809Z,87.80
2018-05-08T00:49:16.627Z,86.00
2018-05-08T00:51:42.740Z,86.00
2018-05-08T00:54:08.902Z,86.70
2018-05-08T00:56:35.927Z,87.00
2018-05-08T00:59:02.020Z,87.00
2018-05-08T01:01:29.091Z,86.00
2018-05-08T01:03:56.940Z,88.60
2018-05-08T01:06:22.983Z,88.50
2018-05-08T01:08:49.136Z,89.10
2018-05-08T01:11:15.283Z,86.80
2018-05-08T01:13:41.371Z,86.70
2018-05-08T01:16:07.439Z,88.30
2018-05-08T01:18:35.593Z,90.50
2018-05-08T01:21:02.455Z,86.60
2018-05-08T01:23:28.533Z,86.70
2018-05-08T01:25:54.595Z,89.20
2018-05-08T01:28:20.656Z,90.20
2018-05-08T01:30:46.910Z,88.90
2018-05-08T01:33:13.076Z,90.70
2018-05-08T01:35:39.101Z,89.90
2018-05-08T01:38:08.047Z,88.80
2018-05-08T01:40:34.830Z,90.00
2018-05-08T01:43:01.652Z,90.10
2018-05-08T01:45:28.449Z,89.60
2018-05-08T01:47:54.519Z,89.70
2018-05-08T01:50:20.597Z,90.40
2018-05-08T01:52:46.780Z,89.20
2018-05-08T01:55:13.609Z,90.70
2018-05-08T01:57:39.692Z,90.70
2018-05-08T02:00:05.784Z,90.10
2018-05-08T02:02:32.564Z,87.20
2018-05-08T02:04:58.747Z,87.30
2018-05-08T02:07:25.571Z,90.00
2018-05-08T02:09:51.802Z,90.00
2018-05-08T02:12:18.881Z,89.60
2018-05-08T02:14:44.978Z,89.50
2018-05-08T02:17:11.037Z,91.70
2018-05-08T02:19:37.101Z,90.50
2018-05-08T02:22:03.442Z,91.00
2018-05-08T02:24:29.623Z,90.50
2018-05-08T02:26:55.748Z,90.30
2018-05-08T02:29:21.858Z,90.50
2018-05-08T02:31:48.643Z,90.00
2018-05-08T02:34:14.728Z,90.30
2018-05-08T02:36:42.617Z,91.20
2018-05-08T02:39:13.617Z,90.90
2018-05-08T02:41:40.407Z,90.10
2018-05-08T02:44:07.544Z,90.10
2018-05-08T02:46:33.691Z,90.10
2018-05-08T02:49:03.769Z,90.90
2018-05-08T02:51:30.547Z,89.90
2018-05-08T02:54:00.345Z,89.80
2018-05-08T02:56:26.400Z,91.00
2018-05-08T02:58:53.508Z,90.10
2018-05-08T03:01:22.402Z,90.20
2018-05-08T03:03:49.532Z,90.20
2018-05-08T03:06:20.523Z,90.70
2018-05-08T03:08:46.574Z,90.70
2018-05-08T03:11:12.618Z,90.90
2018-05-08T03:13:41.568Z,90.30
2018-05-08T03:16:09.730Z,90.30
2018-05-08T03:18:36.872Z,90.30
2018-05-08T03:21:04.019Z,91.20
2018-05-08T03:23:30.099Z,91.40
2018-05-08T03:25:57.045Z,91.40
2018-05-08T03:28:26.870Z,91.40
2018-05-08T03:30:54.821Z,91.70
2018-05-08T03:33:21.695Z,91.90
2018-05-08T03:35:48.499Z,90.70
2018-05-08T03:38:18.878Z,91.60
2018-05-08T03:40:46.110Z,91.70
2018-05-08T03:43:12.260Z,90.90
2018-05-08T03:45:38.307Z,90.70
2018-05-08T03:48:04.494Z,90.80
2018-05-08T03:50:36.069Z,91.20
2018-05-08T03:53:02.163Z,91.20
2018-05-08T03:55:31.079Z,91.80
2018-05-08T03:57:57.125Z,91.90
2018-05-08T04:00:35.479Z,90.90
2018-05-08T04:03:15.945Z,90.60
2018-05-08T04:05:54.895Z,91.00
2018-05-08T04:08:33.172Z,90.90
2018-05-08T04:10:59.332Z,90.20
2018-05-08T04:13:28.269Z,90.30
2018-05-08T04:15:54.373Z,90.30
2018-05-08T04:18:21.511Z,90.50
2018-05-08T04:20:47.557Z,89.80
2018-05-08T04:23:14.616Z,88.70
2018-05-08T04:25:40.770Z,87.30
2018-05-08T04:28:07.544Z,85.30
2018-05-08T04:30:33.635Z,85.30
2018-05-08T04:33:00.446Z,88.60
2018-05-08T04:35:27.497Z,89.40
2018-05-08T04:37:53.556Z,88.00
2018-05-08T04:40:20.431Z,87.10
2018-05-08T04:42:47.231Z,86.50
2018-05-08T04:45:13.383Z,86.50
2018-05-08T04:47:42.214Z,87.30
2018-05-08T04:50:08.243Z,87.30
2018-05-08T04:52:34.396Z,84.80
2018-05-08T04:55:00.573Z,86.10
2018-05-08T04:57:30.878Z,85.00
2018-05-08T04:59:57.679Z,84.50
2018-05-08T05:02:26.965Z,84.60
2018-05-08T05:04:56.463Z,84.90
2018-05-08T05:07:22.551Z,82.80
2018-05-08T05:09:49.391Z,76.60
2018-05-08T05:12:16.146Z,77.80
2018-05-08T05:14:42.327Z,76.80
2018-05-08T05:17:08.498Z,73.90
2018-05-08T05:19:38.831Z,71.20
2018-05-08T05:22:04.900Z,71.20
2018-05-08T05:24:32.082Z,69.20
2018-05-08T05:26:58.112Z,70.10
2018-05-08T05:29:24.891Z,66.90
2018-05-08T05:31:51.048Z,66.90
2018-05-08T05:34:17.135Z,66.40
2018-05-08T05:36:46.924Z,65.80
2018-05-08T05:39:14.819Z,65.20
2018-05-08T05:41:40.925Z,65.20
2018-05-08T05:44:08.009Z,64.50
2018-05-08T05:46:35.085Z,63.90
2018-05-08T05:49:01.170Z,62.30
2018-05-08T05:51:27.283Z,62.30
2018-05-08T05:53:54.080Z,62.30
2018-05-08T05:56:20.141Z,61.50
2018-05-08T05:58:46.308Z,61.80
2018-05-08T06:01:12.395Z,60.00
2018-05-08T06:03:39.182Z,59.50
2018-05-08T06:06:07.357Z,59.30
2018-05-08T06:08:33.568Z,59.10
2018-05-08T06:10:59.697Z,57.40
2018-05-08T06:13:26.795Z,57.30
2018-05-08T06:15:53.043Z,57.40
2018-05-08T06:18:19.971Z,56.40
2018-05-08T06:20:46.825Z,56.10
2018-05-08T06:23:12.963Z,56.00
2018-05-08T06:25:41.030Z,56.20
2018-05-08T06:28:08.119Z,55.20
2018-05-08T06:30:39.853Z,54.40
2018-05-08T06:33:05.920Z,54.10
2018-05-08T06:35:32.116Z,53.90
2018-05-08T06:37:58.186Z,54.10
2018-05-08T06:40:27.979Z,54.60
2018-05-08T06:42:54.297Z,53.70
2018-05-08T06:45:21.399Z,53.40
2018-05-08T06:47:47.580Z,50.70
2018-05-08T06:50:13.658Z,51.70
2018-05-08T06:52:40.497Z,52.40
2018-05-08T06:55:07.388Z,52.20
2018-05-08T06:57:33.568Z,49.50
2018-05-08T07:00:00.460Z,48.90
2018-05-08T07:02:26.584Z,48.60
2018-05-08T07:04:52.702Z,48.40
2018-05-08T07:07:18.780Z,48.70
2018-05-08T07:09:46.713Z,48.80
2018-05-08T07:12:12.922Z,48.10
2018-05-08T07:14:41.100Z,47.50
2018-05-08T07:17:07.268Z,45.30
2018-05-08T07:19:34.401Z,45.60
2018-05-08T07:22:00.697Z,43.60
2018-05-08T07:24:27.543Z,42.20
2018-05-08T07:26:54.618Z,42.10
2018-05-08T07:29:21.694Z,42.70
2018-05-08T07:31:48.804Z,42.50
2018-05-08T07:34:16.899Z,42.70
2018-05-08T07:36:43.102Z,43.10
2018-05-08T07:39:09.195Z,41.00
2018-05-08T07:41:39.909Z,40.00
2018-05-08T07:44:06.779Z,42.40
2018-05-08T07:46:33.132Z,42.30
2018-05-08T07:48:59.382Z,41.90
2018-05-08T07:51:26.863Z,38.20
2018-05-08T07:53:52.998Z,36.80
2018-05-08T07:56:19.856Z,35.90
2018-05-08T07:58:45.977Z,36.00
2018-05-08T08:01:12.853Z,35.40
2018-05-08T08:03:38.982Z,35.30
2018-05-08T08:06:05.121Z,35.90
2018-05-08T08:08:32.071Z,36.70
2018-05-08T08:10:58.447Z,36.80
2018-05-08T08:13:26.337Z,37.50
2018-05-08T08:15:52.461Z,37.30
2018-05-08T08:18:19.473Z,35.00
2018-05-08T08:20:45.516Z,34.90
2018-05-08T08:23:12.547Z,32.70
2018-05-08T08:25:38.598Z,32.70
2018-05-08T08:28:05.526Z,32.90
2018-05-08T08:30:32.956Z,32.30
2018-05-08T08:32:59.065Z,32.10
2018-05-08T08:35:26.213Z,33.90
2018-05-08T08:37:56.216Z,33.80
2018-05-08T08:40:26.840Z,32.50
2018-05-08T08:42:52.910Z,33.70
2018-05-08T08:45:19.030Z,32.60
2018-05-08T08:47:46.471Z,33.60
2018-05-08T08:50:15.755Z,32.70
2018-05-08T08:52:41.942Z,33.30
2018-05-08T08:55:08.737Z,32.50
2018-05-08T08:57:34.813Z,31.80
2018-05-08T09:00:01.956Z,30.80
2018-05-08T09:02:30.767Z,32.40
2018-05-08T09:04:57.553Z,31.50
2018-05-08T09:07:23.657Z,30.80
2018-05-08T09:09:54.248Z,31.00
2018-05-08T09:12:20.311Z,30.50
2018-05-08T09:14:46.540Z,31.30
2018-05-08T09:17:14.814Z,32.20
2018-05-08T09:19:41.005Z,30.90
2018-05-08T09:22:07.088Z,30.80
2018-05-08T09:24:34.263Z,31.30
2018-05-08T09:27:01.099Z,30.40
2018-05-08T09:29:28.970Z,30.60
2018-05-08T09:31:55.094Z,30.70
2018-05-08T09:34:22.756Z,31.90
2018-05-08T09:36:49.667Z,30.10
2018-05-08T09:39:15.831Z,30.00
2018-05-08T09:41:42.831Z,31.00
2018-05-08T09:44:08.987Z,30.90
2018-05-08T09:46:35.144Z,30.40
2018-05-08T09:49:02.152Z,29.00
2018-05-08T09:51:31.462Z,28.90
2018-05-08T09:53:57.784Z,29.60
2018-05-08T09:56:23.899Z,30.00
2018-05-08T09:58:49.994Z,29.20
2018-05-08T10:01:17.368Z,28.10
2018-05-08T10:03:44.546Z,29.10
2018-05-08T10:06:11.713Z,29.10
2018-05-08T10:08:37.869Z,28.70
2018-05-08T10:11:04.730Z,29.60
2018-05-08T10:13:34.626Z,29.60
2018-05-08T10:16:01.524Z,28.40
2018-05-08T10:18:27.706Z,28.40
2018-05-08T10:20:54.582Z,27.70
2018-05-08T10:23:22.755Z,27.60
2018-05-08T10:25:50.015Z,27.20
2018-05-08T10:28:18.185Z,28.40
2018-05-08T10:30:44.504Z,28.20
2018-05-08T10:33:11.664Z,28.10
2018-05-08T10:35:38.479Z,28.10
2018-05-08T10:38:06.369Z,27.70
2018-05-08T10:40:32.598Z,27.70
2018-05-08T10:42:59.946Z,28.30
2018-05-08T10:45:26.267Z,29.60
2018-05-08T10:47:53.128Z,29.20
2018-05-08T10:50:19.247Z,29.10
2018-05-08T10:52:45.682Z,29.10
2018-05-08T10:55:11.857Z,29.30
2018-05-08T10:57:37.952Z,28.20
2018-05-08T11:00:05.268Z,29.90
2018-05-08T11:02:31.449Z,29.90
2018-05-08T11:04:58.592Z,29.40
2018-05-08T11:07:24.655Z,27.00
2018-05-08T11:09:51.523Z,28.40
2018-05-08T11:12:19.621Z,28.20
2018-05-08T11:14:46.659Z,28.00
2018-05-08T11:17:13.792Z,28.30
2018-05-08T11:19:39.951Z,29.00
2018-05-08T11:22:07.093Z,27.90
2018-05-08T11:24:33.245Z,28.60
2018-05-08T11:26:59.438Z,28.40
2018-05-08T11:29:25.524Z,25.60
2018-05-08T11:31:52.819Z,27.00
2018-05-08T11:34:18.946Z,27.00
2018-05-08T11:36:46.978Z,26.00
2018-05-08T11:39:14.322Z,26.30
2018-05-08T11:41:40.620Z,26.30
2018-05-08T11:44:10.383Z,27.50
2018-05-08T11:46:37.305Z,27.50
2018-05-08T11:49:03.400Z,27.40
2018-05-08T11:51:29.607Z,27.20
2018-05-08T11:53:56.779Z,26.30
2018-05-08T11:56:22.896Z,27.80
2018-05-08T11:58:49.198Z,27.00
2018-05-08T12:01:16.393Z,26.40
2018-05-08T12:03:42.476Z,26.20
2018-05-08T12:06:10.002Z,26.80
2018-05-08T12:08:41.650Z,26.40
2018-05-08T12:11:07.936Z,26.50
2018-05-08T12:13:34.068Z,26.60
2018-05-08T12:16:00.486Z,26.80
2018-05-08T12:18:26.774Z,28.10
2018-05-08T12:20:55.332Z,26.90
2018-05-08T12:23:22.441Z,26.60
2018-05-08T12:25:48.753Z,26.60
2018-05-08T12:28:15.141Z,27.20
2018-05-08T12:30:42.584Z,26.70
2018-05-08T12:33:08.852Z,27.20
2018-05-08T12:35:35.355Z,27.40
2018-05-08T12:38:03.344Z,27.70
2018-05-08T12:40:30.540Z,27.70
2018-05-08T12:42:58.862Z,27.00
2018-05-08T12:45:24.879Z,26.60
2018-05-08T12:47:50.922Z,27.00
2018-05-08T12:50:16.985Z,27.20
2018-05-08T12:52:43.762Z,27.50
2018-05-08T12:55:09.873Z,27.50
2018-05-08T12:57:36.670Z,28.10
2018-05-08T13:00:02.847Z,28.10
2018-05-08T13:02:29.965Z,27.80
2018-05-08T13:04:58.931Z,28.30
2018-05-08T13:07:24.962Z,28.20
2018-05-08T13:09:52.038Z,28.20
2018-05-08T13:12:18.819Z,28.50
2018-05-08T13:14:46.005Z,28.50
2018-05-08T13:17:14.416Z,28.20
2018-05-08T13:19:42.336Z,27.70
2018-05-08T13:22:09.327Z,28.40
2018-05-08T13:24:36.540Z,28.00
2018-05-08T13:27:02.735Z,28.00
2018-05-08T13:29:28.802Z,28.60
2018-05-08T13:31:54.999Z,29.60
2018-05-08T13:34:22.908Z,28.70
2018-05-08T13:36:49.000Z,28.60
2018-05-08T13:39:15.053Z,28.30
2018-05-08T13:41:41.111Z,29.60
2018-05-08T13:44:08.897Z,29.60
2018-05-08T13:46:34.985Z,29.50
2018-05-08T13:49:02.031Z,29.70
2018-05-08T13:51:28.189Z,29.60
2018-05-08T13:53:54.380Z,30.60
2018-05-08T13:56:20.464Z,29.60
2018-05-08T13:58:47.667Z,28.30
2018-05-08T14:01:15.540Z,28.70
2018-05-08T14:03:43.391Z,29.90
2018-05-08T14:06:09.599Z,29.90
2018-05-08T14:08:35.696Z,30.40
2018-05-08T14:11:03.771Z,30.40
2018-05-08T14:13:29.895Z,28.90
2018-05-08T14:15:55.991Z,30.00
2018-05-08T14:18:23.866Z,29.30
2018-05-08T14:20:49.938Z,29.20
2018-05-08T14:23:16.079Z,30.00
2018-05-08T14:25:47.187Z,30.80
2018-05-08T14:28:13.332Z,30.90
2018-05-08T14:30:39.513Z,30.30
2018-05-08T14:33:06.444Z,30.20
2018-05-08T14:35:34.369Z,30.20
2018-05-08T14:38:03.366Z,30.20
2018-05-08T14:40:30.538Z,31.00
2018-05-08T14:42:56.825Z,30.90
2018-05-08T14:45:23.106Z,31.80
2018-05-08T14:47:49.288Z,31.50
2018-05-08T14:50:15.579Z,30.00
2018-05-08T14:52:42.601Z,31.10
2018-05-08T14:55:13.906Z,32.00
2018-05-08T14:57:40.085Z,32.00
2018-05-08T15:00:06.203Z,29.30
2018-05-08T15:02:33.266Z,29.20
2018-05-08T15:05:00.175Z,30.00
2018-05-08T15:07:26.301Z,30.00
2018-05-08T15:09:52.403Z,31.20
2018-05-08T15:12:19.643Z,29.60
2018-05-08T15:14:45.818Z,30.10
2018-05-08T15:17:13.856Z,30.40
2018-05-08T15:19:40.001Z,29.80
2018-05-08T15:22:06.142Z,30.60
2018-05-08T15:24:33.322Z,31.20
2018-05-08T15:27:01.123Z,29.70
2018-05-08T15:29:30.121Z,30.00
2018-05-08T15:31:57.340Z,30.00
2018-05-08T15:34:25.241Z,31.90
2018-05-08T15:36:52.322Z,31.20
2018-05-08T15:39:18.501Z,30.90
2018-05-08T15:41:44.839Z,30.70
2018-05-08T15:44:11.942Z,31.30
2018-05-08T15:46:39.193Z,30.80
2018-05-08T15:49:06.112Z,30.30
2018-05-08T15:51:32.220Z,30.30
2018-05-08T15:53:58.496Z,30.40
2018-05-08T15:56:26.169Z,30.20
2018-05-08T15:58:52.275Z,31.20
2018-05-08T16:01:18.359Z,30.20
2018-05-08T16:03:44.696Z,30.80
2018-05-08T16:06:10.782Z,29.50
2018-05-08T16:08:37.861Z,29.60
2018-05-08T16:11:03.999Z,30.00
2018-05-08T16:13:35.935Z,30.90
2018-05-08T16:16:02.039Z,30.70
2018-05-08T16:18:28.188Z,31.70
2018-05-08T16:20:56.346Z,31.90
2018-05-08T16:23:22.404Z,31.90
2018-05-08T16:25:48.531Z,32.60
2018-05-08T16:28:14.574Z,32.50
2018-05-08T16:30:44.315Z,31.50
2018-05-08T16:33:12.375Z,32.90
2018-05-08T16:35:38.514Z,32.80
2018-05-08T16:38:04.613Z,32.80
2018-05-08T16:40:30.864Z,33.30
2018-05-08T16:42:58.088Z,31.50
2018-05-08T16:45:24.956Z,32.80
2018-05-08T16:47:51.514Z,32.70
2018-05-08T16:50:17.684Z,33.00
2018-05-08T16:52:45.771Z,33.50
2018-05-08T16:55:13.973Z,32.90
2018-05-08T16:57:40.133Z,32.90
2018-05-08T17:00:06.207Z,31.20
2018-05-08T17:02:33.700Z,31.20
2018-05-08T17:04:59.947Z,31.50
2018-05-08T17:07:26.798Z,32.70
2018-05-08T17:09:53.738Z,33.50
2018-05-08T17:12:20.544Z,33.90
2018-05-08T17:14:46.771Z,33.80
2018-05-08T17:17:12.883Z,33.40
2018-05-08T17:19:38.961Z,34.10
2018-05-08T17:22:05.761Z,34.90
2018-05-08T17:24:32.997Z,34.80
2018-05-08T17:26:59.205Z,34.90
2018-05-08T17:29:25.288Z,35.10
2018-05-08T17:31:51.663Z,34.90
2018-05-08T17:34:18.829Z,34.80
2018-05-08T17:36:46.000Z,36.10
2018-05-08T17:39:12.269Z,35.60
2018-05-08T17:41:39.178Z,36.60
2018-05-08T17:44:05.244Z,36.50
2018-05-08T17:46:35.318Z,37.40
2018-05-08T17:49:04.703Z,37.40
2018-05-08T17:51:30.824Z,37.00
2018-05-08T17:53:57.966Z,36.60
2018-05-08T17:56:24.143Z,36.60
2018-05-08T17:58:50.314Z,36.70
2018-05-08T18:01:16.356Z,36.60
2018-05-08T18:03:42.402Z,37.10
2018-05-08T18:06:08.485Z,36.80
2018-05-08T18:08:34.982Z,37.40
2018-05-08T18:11:01.180Z,37.80
2018-05-08T18:13:28.171Z,37.80
2018-05-08T18:16:00.692Z,38.20
2018-05-08T18:18:32.530Z,38.50
2018-05-08T18:21:04.499Z,38.50
2018-05-08T18:23:43.454Z,38.70
2018-05-08T18:26:17.159Z,39.30
2018-05-08T18:28:48.408Z,39.20
2018-05-08T18:31:22.439Z,39.20
2018-05-08T18:33:48.860Z,39.20
2018-05-08T18:36:14.940Z,39.10
2018-05-08T18:38:43.091Z,39.60
2018-05-08T18:41:13.723Z,39.50
2018-05-08T18:43:46.410Z,40.10
2018-05-08T18:46:14.208Z,40.00
2018-05-08T18:48:41.237Z,40.00
2018-05-08T18:51:07.285Z,40.10
2018-05-08T18:53:33.349Z,40.30
2018-05-08T18:55:59.379Z,40.60
2018-05-08T18:58:25.440Z,40.80
2018-05-08T19:00:54.246Z,43.50
2018-05-08T19:03:21.075Z,42.60
2018-05-08T19:05:48.258Z,42.50
2018-05-08T19:08:15.379Z,42.40
2018-05-08T19:10:41.391Z,44.70
2018-05-08T19:13:13.054Z,45.40
2018-05-08T19:15:46.265Z,45.50
2018-05-08T19:18:13.101Z,46.40
2018-05-08T19:20:39.870Z,47.00
2018-05-08T19:23:05.985Z,46.80
2018-05-08T19:25:34.034Z,47.70
2018-05-08T19:28:07.093Z,47.80
2018-05-08T19:30:33.250Z,47.70
2018-05-08T19:33:00.022Z,49.40
2018-05-08T19:35:32.270Z,49.20
2018-05-08T19:38:03.442Z,48.80
2018-05-08T19:40:29.527Z,48.70
2018-05-08T19:43:00.276Z,48.50
2018-05-08T19:45:28.400Z,47.90
2018-05-08T19:47:54.492Z,47.90
2018-05-08T19:50:20.604Z,48.80
2018-05-08T19:52:47.417Z,48.70
2018-05-08T19:55:13.476Z,48.60
2018-05-08T19:57:39.515Z,48.40
2018-05-08T20:00:05.545Z,49.40
2018-05-08T20:02:31.651Z,49.50
2018-05-08T20:04:57.822Z,49.60
2018-05-08T20:07:27.242Z,49.90
2018-05-08T20:09:53.540Z,50.20
2018-05-08T20:12:19.619Z,49.80
2018-05-08T20:14:47.572Z,50.60
2018-05-08T20:17:15.719Z,50.00
2018-05-08T20:19:42.970Z,50.10
2018-05-08T20:22:15.632Z,50.20
2018-05-08T20:24:43.827Z,50.20
2018-05-08T20:27:14.562Z,50.30
2018-05-08T20:29:40.703Z,50.30
2018-05-08T20:32:10.411Z,50.40
2018-05-08T20:34:36.459Z,51.00
2018-05-08T20:37:03.265Z,51.50
2018-05-08T20:39:29.351Z,51.50
2018-05-08T20:41:55.500Z,51.80
2018-05-08T20:44:21.622Z,52.00
2018-05-08T20:46:47.737Z,52.50
2018-05-08T20:49:13.955Z,53.00
2018-05-08T20:51:39.996Z,53.00
2018-05-08T20:54:06.248Z,53.30
2018-05-08T20:56:32.408Z,54.10
2018-05-08T20:58:58.493Z,54.00
2018-05-08T21:01:28.187Z,54.70
2018-05-08T21:03:54.518Z,54.20
2018-05-08T21:06:21.679Z,54.70
2018-05-08T21:08:47.832Z,54.60
2018-05-08T21:11:13.964Z,54.90
2018-05-08T21:13:40.034Z,55.00
2018-05-08T21:16:08.142Z,54.90
2018-05-08T21:18:36.056Z,55.70
2018-05-08T21:21:02.889Z,55.70
2018-05-08T21:23:29.975Z,55.70
2018-05-08T21:25:56.061Z,55.80
2018-05-08T21:28:28.174Z,56.00
2018-05-08T21:31:01.376Z,56.30
2018-05-08T21:33:27.792Z,56.10
2018-05-08T21:35:54.717Z,56.70
2018-05-08T21:38:21.823Z,56.60
2018-05-08T21:40:47.942Z,56.90
2018-05-08T21:43:14.003Z,56.50
2018-05-08T21:45:40.508Z,57.00
2018-05-08T21:48:06.637Z,57.50
2018-05-08T21:50:35.968Z,57.90
2018-05-08T21:53:04.178Z,58.20
2018-05-08T21:55:30.288Z,58.30
2018-05-08T21:57:58.109Z,59.30
2018-05-08T22:00:25.155Z,59.20
2018-05-08T22:02:51.220Z,58.60
2018-05-08T22:05:18.026Z,59.70
2018-05-08T22:07:45.143Z,59.50
2018-05-08T22:10:11.187Z,60.50
2018-05-08T22:12:38.115Z,60.70
2018-05-08T22:15:04.222Z,60.60
2018-05-08T22:17:31.252Z,62.00
2018-05-08T22:19:58.231Z,62.50
2018-05-08T22:22:24.350Z,62.30
2018-05-08T22:24:50.441Z,62.60
2018-05-08T22:27:17.694Z,62.70
2018-05-08T22:29:44.647Z,63.60
2018-05-08T22:32:11.558Z,63.80
2018-05-08T22:34:42.856Z,63.20
2018-05-08T22:37:09.965Z,64.40
2018-05-08T22:39:37.040Z,64.30
2018-05-08T22:42:03.874Z,65.40
2018-05-08T22:44:31.968Z,65.40
2018-05-08T22:46:58.778Z,65.60
2018-05-08T22:49:27.037Z,65.60
2018-05-08T22:51:53.128Z,65.60
2018-05-08T22:54:19.244Z,65.70
2018-05-08T22:56:46.100Z,67.20
2018-05-08T22:59:16.099Z,66.90
2018-05-08T23:01:43.243Z,67.30
2018-05-08T23:04:11.351Z,66.70
2018-05-08T23:06:37.521Z,66.60
2018-05-08T23:09:04.676Z,67.00
2018-05-08T23:11:31.796Z,68.40
2018-05-08T23:13:58.921Z,68.20
2018-05-08T23:16:25.090Z,68.20
2018-05-08T23:18:52.260Z,68.20
2018-05-08T23:21:18.505Z,68.20
2018-05-08T23:23:44.710Z,68.70
2018-05-08T23:26:11.568Z,68.90
2018-05-08T23:28:38.465Z,68.10
2018-05-08T23:31:04.630Z,68.10
2018-05-08T23:33:31.494Z,68.80
2018-05-08T23:35:58.458Z,69.80
2018-05-08T23:38:25.499Z,69.80
2018-05-08T23:40:51.741Z,70.10
2018-05-08T23:43:18.683Z,69.90
2018-05-08T23:45:45.609Z,69.60
2018-05-08T23:48:11.728Z,69.70
2018-05-08T23:50:39.546Z,70.10
2018-05-08T23:53:05.768Z,70.10
2018-05-08T23:55:33.620Z,69.40
2018-05-08T23:57:59.749Z,69.40
